Portada
METAR-TAF:

METAR-TAF

Aeroports :

Aeroport Internacional de Xangai-Hongqiao

Xangai-Hongqiao, Xina

latitud: 31-10N, longitud: 121-26E, altitud: 7 m

Observació

L'informe es va fer fa 20 minuts, a les 00:30 UTC
Vent 6 kt del Nord-Est, variant entre Nord i Est/Nord-Est
Temperatura 11°C
Humitat 87%
Pressió 1019 hPa
Visibilitat 10 km o més
Cel ennuvolat a una alçada de 1300 ft
pluja

METAR: ZSSS 300030Z 04003MPS 010V070 9999 -RA BKN013 11/09 Q1019 NOSIG

Hora: 08:50 (00:50 UTC)

Pronòstic

L'informe es va fer fa 3 hores i 43 minuts, a les 21:07 UTC
Pronòstic vàlid del 30 a les 00 UTC al 30 a les 24 UTC
Vent 8 kt del Nord-Est
Visibilitat: 6000 m
Cel ennuvolat a una alçada de 1100 ft
Evolucionant progressivament
l' 30 a les 04 UTC al 30 a les 06 UTC
Cel ennuvolat a una alçada de 1600 ft

TAF: ZSSS 292107Z 3000/3024 05004MPS 6000 BKN011 TX13/3006Z TN11/3021Z BECMG 3004/3006 BKN016

Observacions i pronòstics meteorològics de més de 4000 aeroports (METAR i TAF).

Les estacions disponibles són els punts grocs i vermells al mapa.

Posi el ratolí al punt desitjat per veure el nom de l'estació.

Feu clic per veure les observacions i els pronòstics meteorològics.

Per canviar el mapa: feu clic els botons verds amb una creu de color negre per apropar; al botó verd amb un guió per allunyar la imatge; o en les fletxes verdes per a mapes adjacents.


METAR-TAF: